Time;durP1;ratioP1;P1;durP2;ratioP2;P2;SDS_P1;SDS_P2;PMS_P1;PMS_P2;Temp;Humidity;BMP_temperature;BMP_pressure;BME280_temperature;BME280_humidity;BME280_pressure;Samples;Min_cycle;Max_cycle;Signal;HPM_P1;HPM_P2
2024/03/01 00:01:39;;;;;;;2.80;0.90;;;22.00;67.40;;;;;;4983140;28;20465;-70
2024/03/01 00:04:08;;;;;;;1.23;0.80;;;22.00;67.20;;;;;;4985865;28;20843;-70
2024/03/01 00:06:34;;;;;;;1.07;0.73;;;21.90;67.20;;;;;;4992545;28;20466;-70
2024/03/01 00:09:01;;;;;;;1.30;0.90;;;22.00;67.10;;;;;;4982662;28;20462;-70
2024/03/01 00:11:28;;;;;;;3.20;0.90;;;22.10;67.40;;;;;;4987641;28;20724;-71
2024/03/01 00:13:55;;;;;;;1.10;0.70;;;22.00;67.10;;;;;;4981941;28;20469;-71
2024/03/01 00:16:21;;;;;;;1.47;1.10;;;21.80;67.10;;;;;;4983849;28;20454;-69
2024/03/01 00:18:49;;;;;;;1.00;0.67;;;21.90;67.30;;;;;;4984361;28;21099;-71
2024/03/01 00:21:17;;;;;;;1.07;0.90;;;21.90;67.10;;;;;;4980218;28;20466;-71
2024/03/01 00:23:43;;;;;;;1.10;0.83;;;21.90;67.20;;;;;;4985219;28;20488;-71
2024/03/01 00:26:10;;;;;;;0.97;0.80;;;22.10;67.50;;;;;;4985529;28;20797;-68
2024/03/01 00:28:37;;;;;;;1.00;0.90;;;22.10;67.40;;;;;;4984108;28;20926;-68
2024/03/01 00:31:05;;;;;;;0.87;0.60;;;22.00;67.30;;;;;;4982664;28;21125;-70
2024/03/01 00:33:32;;;;;;;1.00;0.90;;;21.90;67.10;;;;;;4981669;28;21300;-70
2024/03/01 00:35:59;;;;;;;1.08;0.98;;;21.60;66.70;;;;;;4988678;28;20203;-70
2024/03/01 00:38:27;;;;;;;1.10;0.83;;;21.70;67.00;;;;;;4979145;28;20227;-70
2024/03/01 00:40:53;;;;;;;1.10;0.90;;;21.80;67.30;;;;;;4983536;28;20945;-70
2024/03/01 00:43:20;;;;;;;0.93;0.80;;;21.70;67.10;;;;;;4984394;28;20684;-70
2024/03/01 00:45:47;;;;;;;1.00;0.83;;;21.80;67.20;;;;;;4984402;28;20460;-70
2024/03/01 00:48:15;;;;;;;1.43;0.80;;;21.60;67.00;;;;;;4974821;28;20470;-71
2024/03/01 00:50:42;;;;;;;1.10;0.80;;;21.60;67.10;;;;;;4988113;28;20462;-70
2024/03/01 00:53:09;;;;;;;1.05;0.90;;;22.20;67.70;;;;;;4976349;28;20222;-70
2024/03/01 00:55:38;;;;;;;1.00;0.80;;;21.60;67.10;;;;;;4980093;28;20692;-70
2024/03/01 00:58:05;;;;;;;0.90;0.70;;;21.70;67.30;;;;;;4977474;28;20224;-70
2024/03/01 01:00:32;;;;;;;1.42;0.70;;;21.70;67.10;;;;;;4978278;28;20464;-70
2024/03/01 01:02:59;;;;;;;1.00;0.82;;;21.70;67.10;;;;;;4977724;28;20271;-71
2024/03/01 01:05:25;;;;;;;1.08;0.80;;;21.60;67.20;;;;;;4978939;28;20620;-70
2024/03/01 01:07:52;;;;;;;1.27;1.10;;;21.60;67.10;;;;;;4976676;28;20211;-70
2024/03/01 01:10:20;;;;;;;1.35;1.15;;;21.60;67.10;;;;;;4971750;28;20215;-69
2024/03/01 01:12:48;;;;;;;0.90;0.70;;;21.60;67.30;;;;;;4979044;28;20474;-70
2024/03/01 01:15:14;;;;;;;1.45;0.95;;;22.10;67.80;;;;;;4983183;28;21478;-70
2024/03/01 01:17:41;;;;;;;1.40;0.90;;;21.60;67.30;;;;;;4984044;28;20839;-70
2024/03/01 01:20:09;;;;;;;1.05;0.77;;;21.70;67.50;;;;;;4985738;28;20203;-70
2024/03/01 01:22:35;;;;;;;1.10;0.83;;;21.60;67.20;;;;;;4986664;28;20556;-70
2024/03/01 01:25:03;;;;;;;1.20;0.80;;;22.10;67.90;;;;;;4983562;28;20518;-70
2024/03/01 01:27:31;;;;;;;0.97;0.87;;;21.70;67.40;;;;;;4983470;28;20484;-70
2024/03/01 01:29:59;;;;;;;1.05;0.90;;;21.50;67.20;;;;;;4982423;28;20473;-70
2024/03/01 01:32:25;;;;;;;1.38;1.00;;;21.30;67.10;;;;;;4987937;28;20207;-69
2024/03/01 01:34:52;;;;;;;1.40;0.90;;;21.30;67.90;;;;;;4984398;28;20211;-70
2024/03/01 01:37:19;;;;;;;1.00;0.80;;;21.30;67.10;;;;;;4977744;28;20238;-70
2024/03/01 01:39:45;;;;;;;0.98;0.80;;;21.40;67.20;;;;;;4989118;28;20200;-69
2024/03/01 01:42:12;;;;;;;1.10;0.80;;;21.40;67.30;;;;;;4980932;28;20203;-69
2024/03/01 01:44:39;;;;;;;1.20;0.80;;;21.40;67.40;;;;;;4983762;28;20479;-70
2024/03/01 01:47:07;;;;;;;1.00;0.70;;;21.80;67.60;;;;;;4980253;28;21092;-69
2024/03/01 01:49:34;;;;;;;1.17;0.98;;;21.20;67.00;;;;;;4979264;28;20776;-70
2024/03/01 01:52:01;;;;;;;0.95;0.77;;;21.40;67.50;;;;;;4975287;28;20212;-69
2024/03/01 01:54:29;;;;;;;1.10;0.90;;;21.30;67.40;;;;;;4979754;28;20667;-69
2024/03/01 01:56:55;;;;;;;1.17;0.88;;;21.80;67.90;;;;;;4978548;28;21142;-71
2024/03/01 01:59:22;;;;;;;1.20;1.00;;;21.20;67.30;;;;;;4978859;28;20224;-71
2024/03/01 02:01:49;;;;;;;1.52;1.27;;;21.20;67.30;;;;;;4978596;28;20199;-71
2024/03/01 02:04:17;;;;;;;1.10;0.85;;;21.70;67.90;;;;;;4961500;28;20452;-69
2024/03/01 02:06:44;;;;;;;1.45;0.93;;;21.30;67.50;;;;;;4979296;28;20218;-70
2024/03/01 02:09:13;;;;;;;1.05;0.82;;;21.60;67.90;;;;;;4980857;28;21847;-70
2024/03/01 02:11:40;;;;;;;1.45;0.90;;;21.20;67.30;;;;;;4979549;28;20210;-71
2024/03/01 02:14:06;;;;;;;0.98;0.75;;;21.20;67.50;;;;;;4981337;28;20213;-68
2024/03/01 02:16:33;;;;;;;1.40;0.93;;;21.20;67.30;;;;;;4981214;28;20239;-72
2024/03/01 02:19:00;;;;;;;1.00;0.80;;;21.70;68.20;;;;;;4987965;28;20596;-71
2024/03/01 02:21:33;;;;;;;1.05;0.90;;;21.20;67.40;;;;;;4987773;28;20207;-70
2024/03/01 02:24:03;;;;;;;1.35;0.85;;;21.60;67.80;;;;;;4991971;28;20210;-70
2024/03/01 02:26:31;;;;;;;1.30;0.90;;;21.20;67.40;;;;;;4992225;28;20196;-71
2024/03/01 02:28:58;;;;;;;1.00;0.85;;;21.20;67.30;;;;;;4985690;28;20207;-70
2024/03/01 02:31:24;;;;;;;1.10;1.00;;;21.10;67.30;;;;;;4988282;28;20794;-70
2024/03/01 02:33:51;;;;;;;1.50;1.00;;;21.10;67.30;;;;;;4991245;28;20867;-71
2024/03/01 02:36:18;;;;;;;1.42;0.90;;;21.10;68.40;;;;;;4991486;28;20196;-71
2024/03/01 02:38:45;;;;;;;1.10;0.90;;;21.10;67.50;;;;;;4988220;28;20736;-71
2024/03/01 02:41:13;;;;;;;1.20;0.80;;;20.90;67.20;;;;;;4978217;28;20198;-70
2024/03/01 02:43:39;;;;;;;1.00;0.80;;;21.00;67.30;;;;;;4992244;28;20211;-70
2024/03/01 02:46:07;;;;;;;1.75;0.80;;;21.10;67.60;;;;;;4988820;28;20204;-71
2024/03/01 02:48:34;;;;;;;1.38;1.08;;;21.10;67.70;;;;;;4976268;28;20204;-71
2024/03/01 02:51:01;;;;;;;0.90;0.80;;;21.10;67.70;;;;;;4983135;28;20694;-71
2024/03/01 02:53:28;;;;;;;1.20;0.90;;;20.80;67.20;;;;;;4985615;28;20746;-71
2024/03/01 02:55:54;;;;;;;1.13;0.80;;;21.00;67.50;;;;;;4989749;28;20214;-71
2024/03/01 02:58:22;;;;;;;1.10;0.80;;;21.30;67.90;;;;;;4990658;28;20790;-71
2024/03/01 03:00:49;;;;;;;1.30;0.82;;;21.00;67.50;;;;;;4981498;28;20204;-71
2024/03/01 03:03:17;;;;;;;1.50;1.00;;;21.20;67.70;;;;;;4990470;28;20195;-69
2024/03/01 03:05:44;;;;;;;1.17;0.90;;;21.00;67.60;;;;;;4985928;28;20267;-71
2024/03/01 03:08:10;;;;;;;1.20;0.80;;;20.80;67.30;;;;;;4983994;28;20892;-70
2024/03/01 03:10:38;;;;;;;1.02;0.85;;;20.90;67.40;;;;;;4991891;28;20217;-71
2024/03/01 03:13:06;;;;;;;1.00;0.80;;;20.90;67.60;;;;;;4990040;28;20200;-71
2024/03/01 03:15:34;;;;;;;1.08;0.95;;;21.00;67.70;;;;;;4987761;28;20268;-68
2024/03/01 03:18:00;;;;;;;1.15;1.00;;;21.40;68.10;;;;;;4986825;28;20204;-69
2024/03/01 03:20:27;;;;;;;1.13;1.00;;;21.00;67.60;;;;;;4983541;28;20775;-71
2024/03/01 03:22:54;;;;;;;0.90;0.73;;;20.90;67.70;;;;;;4986679;28;21015;-71
2024/03/01 03:25:20;;;;;;;1.00;0.80;;;21.00;67.70;;;;;;4990067;28;20671;-70
2024/03/01 03:27:47;;;;;;;1.15;0.95;;;20.90;67.50;;;;;;4982764;28;20313;-69
2024/03/01 03:30:14;;;;;;;1.23;1.00;;;20.80;67.50;;;;;;4978051;28;20558;-69
2024/03/01 03:32:42;;;;;;;1.08;0.93;;;21.10;67.80;;;;;;4987042;28;20834;-70
2024/03/01 03:35:09;;;;;;;1.10;0.80;;;20.90;67.50;;;;;;4986875;28;20204;-70
2024/03/01 03:37:36;;;;;;;1.30;0.95;;;20.90;67.70;;;;;;4989522;28;20783;-70
2024/03/01 03:40:13;;;;;;;1.00;0.80;;;20.70;67.50;;;;;;4987263;28;20227;-70
2024/03/01 03:42:40;;;;;;;1.00;0.80;;;20.70;67.40;;;;;;4983058;28;20204;-69
2024/03/01 03:45:07;;;;;;;1.55;1.30;;;20.90;68.50;;;;;;4981845;28;20478;-70
2024/03/01 03:47:34;;;;;;;1.10;0.80;;;20.90;67.50;;;;;;4984621;28;20949;-69
2024/03/01 03:50:06;;;;;;;1.60;1.08;;;21.10;67.80;;;;;;4989517;28;20196;-70
2024/03/01 03:52:33;;;;;;;1.10;0.90;;;21.00;67.60;;;;;;4987397;28;20250;-70
2024/03/01 03:54:59;;;;;;;1.00;0.80;;;20.90;67.50;;;;;;4981743;28;20924;-70
2024/03/01 03:57:26;;;;;;;1.08;0.85;;;20.90;67.60;;;;;;4990086;28;20568;-70
2024/03/01 03:59:53;;;;;;;1.00;0.80;;;21.00;67.80;;;;;;4987215;28;20220;-71
2024/03/01 04:02:19;;;;;;;1.30;1.05;;;21.30;68.20;;;;;;4989175;28;20195;-71
2024/03/01 04:04:46;;;;;;;1.33;1.00;;;20.60;67.40;;;;;;4989131;28;20231;-71
2024/03/01 04:07:14;;;;;;;1.20;1.00;;;20.80;67.70;;;;;;4986309;28;20195;-71
2024/03/01 04:09:41;;;;;;;1.23;1.00;;;20.80;67.80;;;;;;4989321;28;20199;-71
2024/03/01 04:12:09;;;;;;;1.10;0.85;;;20.80;67.90;;;;;;4985739;28;20382;-72
2024/03/01 04:14:36;;;;;;;1.20;1.10;;;20.80;67.80;;;;;;4990604;28;20203;-71
2024/03/01 04:17:02;;;;;;;1.15;1.05;;;21.00;67.80;;;;;;4982084;28;20642;-70
2024/03/01 04:19:29;;;;;;;1.10;0.82;;;20.90;67.90;;;;;;4986425;28;20224;-71
2024/03/01 04:21:56;;;;;;;1.00;0.80;;;20.80;67.90;;;;;;4986303;28;20200;-71
2024/03/01 04:24:26;;;;;;;1.20;1.00;;;20.60;67.60;;;;;;4989189;28;20227;-71
2024/03/01 04:26:53;;;;;;;1.23;0.80;;;20.60;67.70;;;;;;4986060;28;20735;-70
2024/03/01 04:29:19;;;;;;;1.20;0.98;;;20.80;67.90;;;;;;4983491;28;20701;-70
2024/03/01 04:31:48;;;;;;;1.30;0.90;;;20.70;67.70;;;;;;4986544;28;20195;-71
2024/03/01 04:34:14;;;;;;;1.20;0.90;;;20.80;68.10;;;;;;4989196;28;20948;-71
2024/03/01 04:36:41;;;;;;;1.25;1.13;;;21.00;68.10;;;;;;4988722;28;20217;-70
2024/03/01 04:39:08;;;;;;;1.00;0.88;;;20.50;67.60;;;;;;4987551;28;20549;-70
2024/03/01 04:41:36;;;;;;;1.20;1.02;;;20.70;67.80;;;;;;4985797;28;20207;-71
2024/03/01 04:44:05;;;;;;;1.20;1.10;;;20.70;67.80;;;;;;4988286;28;20207;-71
2024/03/01 04:46:31;;;;;;;1.30;1.10;;;20.70;67.90;;;;;;4981032;28;20763;-71
2024/03/01 04:48:58;;;;;;;1.13;0.93;;;20.70;67.90;;;;;;4985500;28;20202;-71
2024/03/01 04:51:25;;;;;;;1.33;0.80;;;20.70;67.80;;;;;;4988485;28;20208;-71
2024/03/01 04:53:51;;;;;;;1.08;0.80;;;20.60;67.90;;;;;;4985859;28;20204;-71
2024/03/01 04:56:18;;;;;;;1.05;0.88;;;20.70;67.90;;;;;;4989144;28;20674;-71
2024/03/01 04:58:46;;;;;;;1.15;0.85;;;20.70;67.80;;;;;;4987464;28;20708;-71
2024/03/01 05:01:15;;;;;;;1.25;1.00;;;20.70;67.90;;;;;;4987392;28;20219;-71
2024/03/01 05:03:44;;;;;;;1.40;1.10;;;20.70;68.00;;;;;;4980833;28;20204;-71
2024/03/01 05:06:11;;;;;;;1.10;0.93;;;20.50;67.80;;;;;;4989197;28;21118;-71
2024/03/01 05:08:38;;;;;;;1.10;0.90;;;20.70;68.10;;;;;;4983987;28;20195;-70
2024/03/01 05:11:04;;;;;;;1.27;1.10;;;20.60;67.80;;;;;;4988115;28;20700;-72
2024/03/01 05:13:31;;;;;;;1.02;0.77;;;21.10;68.60;;;;;;4989003;28;20843;-71
2024/03/01 05:16:00;;;;;;;1.08;0.80;;;20.60;67.90;;;;;;4985375;28;20718;-71
2024/03/01 05:18:27;;;;;;;1.20;1.00;;;20.70;68.10;;;;;;4986206;28;20663;-71
2024/03/01 05:20:54;;;;;;;1.25;1.15;;;20.50;68.00;;;;;;4988513;28;20195;-71
2024/03/01 05:23:21;;;;;;;1.10;0.82;;;20.70;67.90;;;;;;4985317;28;20885;-71
2024/03/01 05:25:48;;;;;;;1.10;1.00;;;20.60;67.80;;;;;;4985580;28;20540;-71
2024/03/01 05:28:15;;;;;;;1.10;0.80;;;20.60;68.10;;;;;;4989151;28;20202;-71
2024/03/01 05:30:42;;;;;;;1.20;1.00;;;20.60;68.00;;;;;;4989122;28;20203;-71
2024/03/01 05:33:12;;;;;;;1.10;0.98;;;20.60;67.90;;;;;;4986997;28;20200;-70
2024/03/01 05:35:39;;;;;;;1.25;0.93;;;20.60;67.90;;;;;;4983919;28;20192;-71
2024/03/01 05:38:05;;;;;;;1.10;0.80;;;20.60;68.00;;;;;;4984728;28;20195;-70
2024/03/01 05:40:32;;;;;;;1.20;1.00;;;20.60;67.90;;;;;;4984412;28;20332;-72
2024/03/01 05:42:59;;;;;;;1.05;0.95;;;20.60;68.10;;;;;;4989116;28;20408;-71
2024/03/01 05:45:26;;;;;;;0.90;0.70;;;20.60;68.10;;;;;;4986270;28;20643;-71
2024/03/01 05:47:53;;;;;;;1.10;0.80;;;20.90;68.40;;;;;;4983934;28;20203;-70
2024/03/01 05:50:21;;;;;;;1.00;0.80;;;20.60;68.00;;;;;;4989706;28;20754;-71
2024/03/01 05:52:50;;;;;;;1.42;0.90;;;20.80;68.40;;;;;;4990347;28;20195;-70
2024/03/01 05:55:16;;;;;;;1.00;0.90;;;20.80;68.20;;;;;;4991794;28;20211;-71
2024/03/01 05:57:46;;;;;;;1.10;0.80;;;20.50;68.10;;;;;;4992123;28;20196;-71
2024/03/01 06:00:19;;;;;;;1.10;0.90;;;20.50;68.00;;;;;;4987725;28;20223;-71
2024/03/01 06:02:46;;;;;;;1.30;1.00;;;20.50;67.90;;;;;;4991835;28;20200;-69
2024/03/01 06:05:13;;;;;;;1.33;0.80;;;20.60;68.20;;;;;;4989486;28;20315;-70
2024/03/01 06:07:42;;;;;;;1.13;0.95;;;20.90;68.50;;;;;;4986681;28;20204;-71
2024/03/01 06:10:09;;;;;;;1.20;0.90;;;20.60;68.20;;;;;;4990149;28;20588;-69
2024/03/01 06:12:35;;;;;;;1.10;0.90;;;20.50;67.90;;;;;;4989148;28;20207;-70
2024/03/01 06:15:04;;;;;;;0.90;0.80;;;20.50;68.10;;;;;;4991218;28;20676;-71
2024/03/01 06:17:30;;;;;;;1.00;0.90;;;20.10;67.50;;;;;;4990931;28;20344;-70
2024/03/01 06:19:57;;;;;;;1.20;1.10;;;20.50;68.10;;;;;;4991140;28;20227;-71
2024/03/01 06:22:24;;;;;;;1.02;0.80;;;20.50;67.90;;;;;;4982888;28;20203;-72
2024/03/01 06:24:52;;;;;;;1.20;1.10;;;20.50;68.00;;;;;;4992822;28;20195;-71
2024/03/01 06:27:18;;;;;;;1.10;0.90;;;20.80;68.40;;;;;;4988661;28;21516;-71
2024/03/01 06:29:45;;;;;;;1.10;0.80;;;21.00;68.80;;;;;;4989275;28;20762;-71
2024/03/01 06:32:12;;;;;;;1.20;1.05;;;20.50;68.10;;;;;;4983519;28;20200;-71
2024/03/01 06:34:39;;;;;;;1.42;0.90;;;20.50;68.20;;;;;;4985337;28;20204;-70
2024/03/01 06:37:06;;;;;;;1.27;0.80;;;20.50;68.20;;;;;;4988725;28;20231;-72
2024/03/01 06:39:32;;;;;;;1.20;0.90;;;20.50;68.90;;;;;;4986805;28;20762;-71
2024/03/01 06:42:00;;;;;;;1.00;0.80;;;20.50;68.10;;;;;;4991164;28;20416;-67
2024/03/01 06:44:27;;;;;;;1.00;0.73;;;20.50;68.20;;;;;;5004878;28;20794;-74
2024/03/01 06:46:54;;;;;;;1.10;0.80;;;20.70;68.30;;;;;;4994049;28;20748;-75
2024/03/01 06:49:21;;;;;;;1.30;0.95;;;20.40;67.90;;;;;;5001114;28;20200;-73
2024/03/01 06:51:48;;;;;;;1.17;0.90;;;20.50;68.20;;;;;;5001977;28;20208;-73
2024/03/01 06:54:15;;;;;;;1.35;1.00;;;20.60;68.60;;;;;;5000180;28;20840;-74
2024/03/01 06:56:42;;;;;;;1.15;0.90;;;20.50;68.40;;;;;;5002126;28;20212;-74
2024/03/01 06:59:10;;;;;;;1.00;0.90;;;20.40;68.10;;;;;;5002497;28;20208;-74
2024/03/01 07:01:39;;;;;;;1.00;0.90;;;20.60;68.50;;;;;;5000861;28;20199;-74
2024/03/01 07:04:06;;;;;;;1.63;1.10;;;20.20;68.00;;;;;;5004813;28;20766;-73
2024/03/01 07:06:33;;;;;;;1.00;0.77;;;20.30;68.00;;;;;;5000660;28;20204;-73
2024/03/01 07:09:00;;;;;;;1.10;0.90;;;20.20;68.00;;;;;;4996937;28;20207;-73
2024/03/01 07:11:27;;;;;;;1.25;0.88;;;20.70;69.50;;;;;;4999499;28;20304;-74
2024/03/01 07:13:54;;;;;;;1.08;0.80;;;20.40;68.20;;;;;;5000644;28;20257;-73
2024/03/01 07:16:23;;;;;;;1.20;0.98;;;20.50;68.20;;;;;;4994531;28;20204;-74
2024/03/01 07:18:49;;;;;;;1.10;0.90;;;20.40;68.20;;;;;;4998853;28;20200;-74
2024/03/01 07:21:16;;;;;;;3.15;0.90;;;20.40;68.30;;;;;;5006084;28;20220;-74
2024/03/01 07:23:43;;;;;;;1.15;0.90;;;20.40;68.20;;;;;;5004910;28;20644;-73
2024/03/01 07:26:09;;;;;;;1.35;0.90;;;20.30;68.20;;;;;;5001893;28;20199;-74
2024/03/01 07:28:36;;;;;;;1.00;0.70;;;20.20;68.10;;;;;;5005017;28;20609;-74
2024/03/01 07:31:03;;;;;;;1.20;0.90;;;20.20;68.10;;;;;;4995828;28;20525;-73
2024/03/01 07:33:32;;;;;;;1.13;0.80;;;20.50;69.10;;;;;;4999477;28;20603;-74
2024/03/01 07:35:58;;;;;;;1.90;1.10;;;20.40;68.60;;;;;;5001287;28;20220;-74
2024/03/01 07:38:25;;;;;;;1.00;0.90;;;20.40;68.50;;;;;;5000481;28;20203;-74
2024/03/01 07:40:52;;;;;;;1.35;1.20;;;20.20;68.30;;;;;;5005403;28;20234;-74
2024/03/01 07:43:19;;;;;;;1.00;0.90;;;20.20;68.40;;;;;;4999590;28;20200;-74
2024/03/01 07:45:45;;;;;;;1.10;0.90;;;20.40;68.60;;;;;;4995814;28;20676;-74
2024/03/01 07:48:12;;;;;;;1.40;1.00;;;20.90;69.20;;;;;;4997485;28;20289;-74
2024/03/01 07:50:41;;;;;;;1.27;1.00;;;20.40;68.60;;;;;;5005568;28;20405;-74
2024/03/01 07:53:08;;;;;;;1.08;0.80;;;20.40;68.50;;;;;;5003734;28;20196;-73
2024/03/01 07:55:35;;;;;;;1.20;1.10;;;20.50;68.80;;;;;;5003933;28;20592;-74
2024/03/01 07:58:02;;;;;;;1.10;0.90;;;20.40;68.60;;;;;;5005630;28;20750;-74
2024/03/01 08:00:29;;;;;;;1.20;0.90;;;20.50;68.60;;;;;;4995165;28;20227;-74
2024/03/01 08:03:07;;;;;;;1.00;0.77;;;20.70;69.20;;;;;;5002863;28;20192;-74
2024/03/01 08:05:34;;;;;;;1.20;1.00;;;20.50;68.50;;;;;;5004272;28;20298;-74
2024/03/01 08:08:02;;;;;;;1.00;0.80;;;20.40;68.70;;;;;;5005816;28;20196;-74
2024/03/01 08:10:32;;;;;;;1.00;0.77;;;20.50;68.90;;;;;;5003128;28;20351;-74
2024/03/01 08:12:59;;;;;;;1.05;0.80;;;20.50;68.60;;;;;;5002717;28;20471;-74
2024/03/01 08:15:28;;;;;;;1.20;0.90;;;20.60;68.70;;;;;;5000253;28;20200;-74
2024/03/01 08:17:55;;;;;;;1.13;0.98;;;20.40;68.50;;;;;;5004845;28;20755;-73
2024/03/01 08:20:37;;;;;;;1.35;1.02;;;20.40;68.60;;;;;;5003992;28;20667;-74
2024/03/01 08:23:06;;;;;;;1.00;0.90;;;20.80;68.90;;;;;;5004364;28;20759;-73
2024/03/01 08:25:34;;;;;;;1.33;1.13;;;20.60;68.60;;;;;;5003739;28;20196;-73
2024/03/01 08:28:01;;;;;;;1.20;0.90;;;20.50;68.60;;;;;;5005419;28;20206;-74
2024/03/01 08:30:42;;;;;;;1.05;0.93;;;20.70;68.90;;;;;;4994512;28;20210;-73
2024/03/01 08:33:10;;;;;;;1.20;1.00;;;20.70;68.70;;;;;;4999564;28;20287;-74
2024/03/01 08:35:39;;;;;;;1.00;0.85;;;20.70;68.70;;;;;;5003943;28;20209;-73
2024/03/01 08:38:51;;;;;;;1.00;0.70;;;20.70;68.60;;;;;;4999956;28;20206;-74
2024/03/01 08:41:18;;;;;;;1.00;0.70;;;20.70;68.50;;;;;;5002451;28;20691;-73
2024/03/01 08:43:47;;;;;;;1.10;0.90;;;20.80;68.70;;;;;;5004550;28;20523;-74
2024/03/01 08:46:24;;;;;;;1.10;0.90;;;20.60;68.50;;;;;;4999007;28;20245;-73
2024/03/01 08:48:51;;;;;;;0.90;0.70;;;20.60;68.30;;;;;;5002475;28;20204;-74
2024/03/01 08:51:18;;;;;;;1.00;0.80;;;20.70;68.60;;;;;;5002343;28;20211;-74
2024/03/01 08:53:57;;;;;;;0.90;0.70;;;20.80;68.80;;;;;;5000356;28;20205;-73
2024/03/01 08:56:25;;;;;;;1.02;0.80;;;20.60;68.40;;;;;;5002995;28;20689;-73
2024/03/01 08:58:54;;;;;;;0.90;0.70;;;21.40;69.40;;;;;;5003946;28;20375;-73
2024/03/01 09:01:54;;;;;;;0.98;0.77;;;21.20;69.10;;;;;;4996527;28;20614;-74
2024/03/01 09:04:27;;;;;;;0.93;0.80;;;20.80;68.40;;;;;;4976197;28;20203;-74
2024/03/01 09:07:07;;;;;;;1.13;1.00;;;20.80;68.80;;;;;;4999325;28;20631;-74
2024/03/01 09:09:37;;;;;;;1.02;0.90;;;21.30;69.20;;;;;;5005946;28;20203;-73
2024/03/01 09:12:08;;;;;;;1.10;0.90;;;20.80;68.60;;;;;;5001212;28;20200;-73
2024/03/01 09:14:34;;;;;;;1.00;0.88;;;20.80;68.70;;;;;;4999756;28;20204;-73
2024/03/01 09:17:02;;;;;;;0.90;0.75;;;20.90;69.00;;;;;;4997995;28;20203;-74
2024/03/01 09:19:36;;;;;;;1.10;0.90;;;20.70;68.70;;;;;;5005232;28;20716;-73
2024/03/01 09:22:04;;;;;;;1.35;0.90;;;20.80;68.80;;;;;;5001854;28;20196;-73
2024/03/01 09:24:38;;;;;;;1.52;1.08;;;20.90;69.80;;;;;;4995898;28;20195;-73
2024/03/01 09:27:09;;;;;;;1.00;0.90;;;21.30;69.20;;;;;;4990825;28;20200;-74
2024/03/01 09:29:38;;;;;;;1.20;0.95;;;20.90;68.70;;;;;;4994259;28;20219;-74
2024/03/01 09:32:06;;;;;;;1.20;1.00;;;20.80;68.70;;;;;;4997104;28;20208;-73
2024/03/01 09:34:36;;;;;;;1.10;0.90;;;20.90;68.80;;;;;;4995028;28;20226;-74
2024/03/01 09:37:04;;;;;;;1.15;0.80;;;20.90;68.80;;;;;;4992191;28;20228;-73
2024/03/01 09:39:33;;;;;;;1.13;0.80;;;20.70;68.80;;;;;;4994491;28;20663;-74
2024/03/01 09:42:28;;;;;;;1.00;0.80;;;20.90;69.10;;;;;;4996980;28;20219;-74
2024/03/01 09:45:27;;;;;;;1.05;0.73;;;20.90;68.80;;;;;;4996210;28;20207;-74
2024/03/01 09:48:11;;;;;;;1.05;0.90;;;21.00;68.70;;;;;;4990232;28;20704;-73
2024/03/01 09:50:56;;;;;;;1.15;0.80;;;21.00;68.70;;;;;;4990515;28;20207;-74
2024/03/01 09:53:36;;;;;;;1.40;0.90;;;21.40;69.50;;;;;;4990636;28;20266;-74
2024/03/01 09:56:24;;;;;;;1.50;1.00;;;20.90;68.70;;;;;;5001567;28;20670;-74
2024/03/01 09:59:14;;;;;;;1.00;0.80;;;20.90;68.80;;;;;;4995676;28;21333;-76
2024/03/01 10:01:45;;;;;;;1.05;0.80;;;21.00;69.20;;;;;;5000060;28;20386;-72
2024/03/01 10:04:23;;;;;;;1.30;0.95;;;21.00;69.30;;;;;;4994978;28;20204;-71
2024/03/01 10:07:06;;;;;;;1.10;0.80;;;21.30;69.50;;;;;;5000305;28;20210;-70
2024/03/01 10:09:55;;;;;;;1.20;0.95;;;21.20;69.50;;;;;;5001771;28;20600;-71
2024/03/01 10:12:34;;;;;;;1.08;0.93;;;21.00;69.00;;;;;;5002547;28;20200;-71
2024/03/01 10:15:04;;;;;;;1.10;1.00;;;20.90;69.00;;;;;;4998670;28;20682;-71
2024/03/01 10:17:43;;;;;;;0.90;0.80;;;20.80;68.90;;;;;;5000168;28;20196;-72
2024/03/01 10:20:24;;;;;;;1.38;0.80;;;21.00;69.00;;;;;;5002422;28;20207;-72
2024/03/01 10:23:03;;;;;;;1.63;1.20;;;21.40;69.50;;;;;;4992146;28;20204;-70
2024/03/01 10:25:42;;;;;;;1.95;0.80;;;21.10;69.10;;;;;;4999040;28;20842;-71
2024/03/01 10:28:30;;;;;;;1.38;0.80;;;21.00;69.00;;;;;;4997709;28;20204;-72
2024/03/01 10:31:03;;;;;;;1.52;0.90;;;21.10;69.00;;;;;;5004167;28;20201;-70
2024/03/01 10:33:45;;;;;;;1.20;0.90;;;20.70;68.70;;;;;;5000553;28;20197;-70
2024/03/01 10:36:18;;;;;;;1.00;0.80;;;21.10;69.10;;;;;;5003502;28;20201;-71
2024/03/01 10:38:53;;;;;;;1.10;1.00;;;20.70;68.70;;;;;;5002278;28;20208;-72
2024/03/01 10:41:30;;;;;;;1.30;1.00;;;21.30;69.30;;;;;;5002053;28;20214;-72
2024/03/01 10:44:09;;;;;;;1.10;0.90;;;21.10;68.90;;;;;;4998185;28;20195;-72
2024/03/01 10:46:43;;;;;;;1.10;0.85;;;20.90;68.80;;;;;;5001108;28;20281;-71
2024/03/01 10:49:13;;;;;;;1.10;0.90;;;21.30;70.30;;;;;;4998061;28;20209;-72
2024/03/01 10:51:48;;;;;;;1.13;0.95;;;21.10;69.00;;;;;;4996220;28;20209;-72
2024/03/01 10:54:17;;;;;;;1.10;0.90;;;21.10;69.30;;;;;;4998598;28;20226;-70
2024/03/01 10:56:44;;;;;;;1.08;0.80;;;21.60;69.50;;;;;;4998613;28;20205;-73
2024/03/01 10:59:18;;;;;;;0.95;0.70;;;21.30;69.10;;;;;;5000025;28;20207;-71
2024/03/01 11:01:52;;;;;;;1.20;0.82;;;21.10;69.00;;;;;;5000551;28;20216;-72
2024/03/01 11:04:26;;;;;;;1.38;0.80;;;21.60;69.40;;;;;;5001839;28;20196;-73
2024/03/01 11:07:02;;;;;;;1.13;0.90;;;21.10;69.70;;;;;;4998054;28;20192;-72
2024/03/01 11:09:37;;;;;;;1.20;0.90;;;21.10;68.90;;;;;;5000776;28;20207;-71
2024/03/01 11:12:11;;;;;;;1.52;0.90;;;21.10;68.90;;;;;;4999983;28;20222;-70
2024/03/01 11:14:44;;;;;;;1.08;0.90;;;21.10;68.90;;;;;;5002483;28;20217;-71
2024/03/01 11:17:13;;;;;;;1.30;0.90;;;21.40;69.20;;;;;;4985995;28;20204;-72
2024/03/01 11:19:43;;;;;;;1.00;0.70;;;21.50;69.40;;;;;;4996953;28;20206;-73
2024/03/01 11:22:20;;;;;;;1.48;1.10;;;21.20;68.90;;;;;;5001725;28;20545;-72
2024/03/01 11:25:01;;;;;;;1.10;0.80;;;21.20;69.00;;;;;;5003563;28;20648;-73
2024/03/01 11:27:29;;;;;;;1.10;0.85;;;21.20;68.90;;;;;;5002947;28;20793;-72
2024/03/01 11:30:04;;;;;;;1.40;1.20;;;20.90;68.60;;;;;;5006751;28;20452;-74
2024/03/01 11:32:36;;;;;;;1.00;0.90;;;21.20;68.90;;;;;;4999078;28;20203;-71
2024/03/01 11:35:11;;;;;;;1.10;0.80;;;21.00;68.70;;;;;;5005451;28;20239;-71
2024/03/01 11:37:50;;;;;;;1.30;0.90;;;21.00;68.90;;;;;;5000057;28;20223;-72
2024/03/01 11:40:30;;;;;;;1.10;0.77;;;21.20;68.90;;;;;;5006287;28;20776;-71
2024/03/01 11:43:07;;;;;;;0.90;0.80;;;21.20;68.90;;;;;;4989617;28;20204;-72
2024/03/01 11:45:45;;;;;;;1.48;0.80;;;21.20;69.80;;;;;;5004647;28;20196;-72
2024/03/01 11:48:29;;;;;;;1.10;0.90;;;21.00;68.90;;;;;;5004171;28;20219;-72
2024/03/01 11:51:10;;;;;;;1.02;0.70;;;20.70;68.30;;;;;;5006845;28;20204;-71
2024/03/01 11:53:57;;;;;;;1.10;0.90;;;21.20;69.10;;;;;;4996630;28;20883;-72
2024/03/01 11:56:40;;;;;;;1.33;0.90;;;21.50;69.40;;;;;;5004754;28;20235;-71
2024/03/01 11:59:21;;;;;;;1.10;0.90;;;21.20;69.20;;;;;;5003635;28;20711;-73
2024/03/01 12:01:53;;;;;;;1.30;0.95;;;21.20;69.30;;;;;;4998713;28;20220;-74
2024/03/01 12:04:43;;;;;;;4.97;1.08;;;21.10;67.50;;;;;;5004572;28;20205;-75
2024/03/01 12:07:32;;;;;;;1.40;0.95;;;21.10;68.20;;;;;;4991597;28;20234;-70
2024/03/01 12:10:07;;;;;;;3.88;0.90;;;21.10;68.70;;;;;;5001795;28;20671;-69
2024/03/01 12:12:42;;;;;;;1.67;1.00;;;21.10;68.60;;;;;;4997442;28;20833;-73
2024/03/01 12:15:13;;;;;;;2.70;1.30;;;21.20;68.90;;;;;;5004203;28;20623;-73
2024/03/01 12:17:48;;;;;;;3.83;1.10;;;21.10;69.00;;;;;;4999997;28;20197;-74
2024/03/01 12:20:16;;;;;;;2.08;1.00;;;21.60;69.90;;;;;;5000194;28;20207;-70
2024/03/01 12:22:56;;;;;;;3.20;1.33;;;21.20;69.70;;;;;;5004525;28;20618;-77
2024/03/01 12:25:25;;;;;;;3.10;1.15;;;21.20;69.60;;;;;;5001684;28;20198;-77
2024/03/01 12:28:10;;;;;;;3.92;0.90;;;21.20;69.60;;;;;;5003842;28;20223;-69
2024/03/01 12:30:38;;;;;;;2.45;1.10;;;21.30;69.60;;;;;;5004268;28;20705;-78
2024/03/01 12:33:21;;;;;;;1.92;0.80;;;21.30;69.90;;;;;;4999249;28;20709;-77
2024/03/01 12:35:57;;;;;;;1.25;0.90;;;21.30;70.00;;;;;;4995765;28;20306;-74
2024/03/01 12:38:27;;;;;;;1.58;1.10;;;21.30;70.00;;;;;;4991127;28;20698;-81
2024/03/01 12:41:17;;;;;;;1.70;1.30;;;21.30;70.10;;;;;;4999530;28;20208;-73
2024/03/01 12:44:03;;;;;;;3.65;1.00;;;21.30;70.10;;;;;;5002894;28;20201;-73
2024/03/01 12:46:46;;;;;;;2.25;1.40;;;21.80;70.70;;;;;;4995022;28;21544;-73
2024/03/01 12:49:25;;;;;;;5.40;0.95;;;21.80;71.00;;;;;;5002474;28;20585;-77
2024/03/01 12:52:00;;;;;;;2.10;1.20;;;21.10;70.20;;;;;;5003791;28;20698;-70
2024/03/01 12:54:35;;;;;;;5.30;1.33;;;21.10;70.20;;;;;;5005244;28;20205;-72
2024/03/01 12:57:12;;;;;;;3.72;1.05;;;21.10;70.40;;;;;;5000023;28;20207;-72
2024/03/01 12:59:50;;;;;;;4.18;1.17;;;21.30;70.70;;;;;;5005788;28;20295;-79
2024/03/01 13:02:41;;;;;;;4.93;1.27;;;21.40;70.90;;;;;;5001563;28;20456;-77
2024/03/01 13:05:18;;;;;;;3.67;1.40;;;21.40;70.70;;;;;;5005010;28;20203;-72